createdAt,value
2022-12-23T13:25:50.281Z,3.40
2022-12-23T13:30:56.856Z,3.40
2022-12-23T13:36:14.927Z,3.40
2022-12-23T13:41:24.189Z,3.47
2022-12-23T13:46:35.938Z,3.67
2022-12-23T13:51:42.674Z,3.03
2022-12-23T13:56:49.690Z,3.30
2022-12-23T14:01:53.337Z,3.10
2022-12-23T14:06:57.175Z,3.33
2022-12-23T14:12:12.651Z,3.50
2022-12-23T14:17:20.953Z,3.05
2022-12-23T14:22:36.839Z,3.28
2022-12-23T14:27:49.309Z,3.63
2022-12-23T14:32:53.942Z,3.90
2022-12-23T14:38:24.794Z,3.65
2022-12-23T14:43:34.169Z,3.78
2022-12-23T14:49:38.358Z,3.80
2022-12-23T14:54:39.208Z,3.50
2022-12-23T14:59:46.791Z,4.05
2022-12-23T15:04:52.208Z,3.88
2022-12-23T15:10:01.079Z,3.72
2022-12-23T15:15:07.819Z,3.92
2022-12-23T15:20:15.191Z,4.10
2022-12-23T15:25:22.766Z,4.20
2022-12-23T15:30:27.934Z,4.30
2022-12-23T15:35:32.645Z,4.30
2022-12-23T15:40:37.817Z,4.50
2022-12-23T15:45:43.310Z,3.50
2022-12-23T15:50:46.258Z,4.30
2022-12-23T15:55:50.208Z,3.88
2022-12-23T16:00:55.828Z,3.83
2022-12-23T16:06:07.918Z,4.07
2022-12-23T16:11:16.108Z,4.20
2022-12-23T16:16:27.883Z,4.47
2022-12-23T16:21:33.245Z,4.03
2022-12-23T16:26:41.190Z,3.90
2022-12-23T16:31:52.144Z,4.10
2022-12-23T16:36:58.569Z,3.70
2022-12-23T16:42:01.306Z,3.85
2022-12-23T16:47:08.358Z,3.92
2022-12-23T16:52:14.183Z,3.75
2022-12-23T16:57:16.909Z,3.60
2022-12-23T17:02:24.413Z,3.85
2022-12-23T17:07:27.685Z,3.50
2022-12-23T17:12:30.416Z,3.97
2022-12-23T17:17:39.438Z,4.10
2022-12-23T17:22:43.937Z,4.05
2022-12-23T17:27:46.591Z,4.07
2022-12-23T17:32:52.530Z,3.65
2022-12-23T17:37:55.457Z,3.95
2022-12-23T17:42:58.184Z,3.60
2022-12-23T17:48:02.233Z,3.90
2022-12-23T17:53:04.955Z,3.65
2022-12-23T17:58:07.677Z,3.65
2022-12-23T18:03:22.429Z,3.45
2022-12-23T18:08:25.794Z,3.60
2022-12-23T18:13:28.557Z,3.55
2022-12-23T18:18:43.473Z,3.40
2022-12-23T18:23:48.825Z,3.20
2022-12-23T18:28:53.918Z,3.38
2022-12-23T18:33:59.534Z,3.88
2022-12-23T18:39:02.206Z,3.78
2022-12-23T18:44:05.141Z,4.13
2022-12-23T18:49:09.192Z,3.90
2022-12-23T18:54:14.417Z,4.00
2022-12-23T18:59:21.372Z,4.25
2022-12-23T19:04:31.350Z,3.80
2022-12-23T19:09:34.053Z,4.22
2022-12-23T19:14:36.704Z,4.13
2022-12-23T19:19:40.803Z,3.85
2022-12-23T19:25:03.876Z,4.05
2022-12-23T19:30:07.857Z,3.80
2022-12-23T19:35:13.460Z,3.92
2022-12-23T19:40:16.809Z,3.63
2022-12-23T19:45:19.654Z,3.88
2022-12-23T19:50:23.787Z,3.58
2022-12-23T19:55:26.444Z,3.78
2022-12-23T20:00:29.223Z,3.70
2022-12-23T20:05:33.278Z,3.60
2022-12-23T20:10:35.977Z,4.10
2022-12-23T20:15:38.751Z,4.28
2022-12-23T20:20:45.803Z,3.30
2022-12-23T20:25:48.541Z,3.75
2022-12-23T20:30:59.970Z,3.65
2022-12-23T20:36:04.255Z,3.17
2022-12-23T20:41:07.029Z,3.60
2022-12-23T20:46:12.035Z,3.38
2022-12-23T20:51:18.051Z,3.35
2022-12-23T20:56:22.019Z,3.50
2022-12-23T21:01:27.327Z,46.50
2022-12-23T21:06:32.281Z,117.90
2022-12-23T21:11:37.710Z,168.10
2022-12-23T21:16:41.224Z,197.13
2022-12-23T21:21:45.804Z,219.65
2022-12-23T21:26:56.478Z,228.68
2022-12-23T21:32:00.455Z,232.85
2022-12-23T21:37:04.719Z,220.88
2022-12-23T21:42:07.455Z,216.55
2022-12-23T21:47:10.177Z,219.63
2022-12-23T21:52:14.371Z,207.75
2022-12-23T21:57:17.036Z,186.90
2022-12-23T22:02:19.738Z,173.27
2022-12-23T22:07:23.901Z,166.98
2022-12-23T22:12:26.598Z,153.65
2022-12-23T22:17:29.203Z,149.93
2022-12-23T22:22:33.180Z,147.20
2022-12-23T22:27:35.841Z,142.18
2022-12-23T22:32:42.392Z,133.38
2022-12-23T22:37:46.744Z,132.10
2022-12-23T22:42:49.366Z,130.00
2022-12-23T22:47:52.036Z,125.90
2022-12-23T22:52:56.408Z,119.28
2022-12-23T22:57:59.040Z,113.90
2022-12-23T23:03:01.768Z,114.18
2022-12-23T23:08:06.256Z,103.20
2022-12-23T23:13:08.984Z,102.65
2022-12-23T23:18:11.626Z,96.30
2022-12-23T23:23:15.768Z,92.28
2022-12-23T23:28:18.699Z,88.93
2022-12-23T23:33:21.410Z,81.07
2022-12-23T23:38:26.172Z,74.97
2022-12-23T23:43:28.826Z,73.90
2022-12-23T23:48:31.466Z,68.13
2022-12-23T23:53:35.444Z,66.55
2022-12-23T23:58:38.241Z,62.90
